Time;durP1;ratioP1;P1;durP2;ratioP2;P2;SDS_P1;SDS_P2;PMS_P1;PMS_P2;Temp;Humidity;BMP_temperature;BMP_pressure;BME280_temperature;BME280_humidity;BME280_pressure;Samples;Min_cycle;Max_cycle;Signal;HPM_P1;HPM_P2
2021/07/27 00:01:18;;;;;;;45.45;31.33;;;17.80;99.90;;;;;;4985278;28;20113;-86
2021/07/27 00:03:45;;;;;;;47.03;31.55;;;17.80;99.90;;;;;;4968165;28;20053;-85
2021/07/27 00:06:11;;;;;;;50.75;32.67;;;17.80;99.90;;;;;;4965529;28;20046;-85
2021/07/27 00:08:38;;;;;;;53.22;33.33;;;17.80;99.90;;;;;;4968925;28;20039;-84
2021/07/27 00:11:13;;;;;;;52.30;34.20;;;17.80;99.90;;;;;;4966568;28;20461;-84
2021/07/27 00:13:40;;;;;;;51.67;33.85;;;17.80;99.90;;;;;;4954332;28;20062;-85
2021/07/27 00:16:06;;;;;;;55.00;35.85;;;17.80;99.90;;;;;;4971812;28;20065;-85
2021/07/27 00:18:32;;;;;;;54.05;36.08;;;17.80;99.90;;;;;;4943657;28;20043;-84
2021/07/27 00:21:00;;;;;;;55.05;35.88;;;17.80;99.90;;;;;;4952114;28;20039;-85
2021/07/27 00:23:27;;;;;;;58.72;36.08;;;17.80;99.90;;;;;;4968099;28;20121;-84
2021/07/27 00:25:53;;;;;;;57.47;35.53;;;17.80;99.90;;;;;;4970630;28;20109;-83
2021/07/27 00:28:18;;;;;;;64.07;38.70;;;17.70;99.90;;;;;;4959331;28;20069;-82
2021/07/27 00:30:44;;;;;;;65.30;41.40;;;17.80;99.90;;;;;;4971134;28;20042;-83
2021/07/27 00:33:10;;;;;;;69.50;41.13;;;17.80;99.90;;;;;;4968328;28;20109;-84
2021/07/27 00:35:36;;;;;;;67.80;41.75;;;17.70;99.90;;;;;;4969386;28;20039;-84
2021/07/27 00:38:35;;;;;;;73.47;44.60;;;17.70;99.90;;;;;;4975129;28;20396;-82
2021/07/27 00:40:53;;;;;;;76.07;45.03;;;17.70;99.90;;;;;;4964482;28;20122;-85
2021/07/27 00:43:22;;;;;;;76.22;46.38;;;17.70;99.90;;;;;;4981646;28;20031;-82
2021/07/27 00:45:48;;;;;;;83.97;47.13;;;17.70;99.90;;;;;;4976505;28;20046;-83
2021/07/27 00:48:14;;;;;;;79.55;47.53;;;17.70;99.90;;;;;;4993373;28;20026;-83
2021/07/27 00:50:39;;;;;;;80.32;48.42;;;17.70;99.90;;;;;;5011028;28;20120;-85
2021/07/27 00:53:06;;;;;;;86.90;49.53;;;17.70;99.90;;;;;;5008785;28;20038;-84
2021/07/27 00:55:33;;;;;;;93.57;50.00;;;17.70;99.90;;;;;;4978383;28;20042;-84
2021/07/27 00:57:59;;;;;;;94.18;51.72;;;17.80;99.90;;;;;;4960557;28;20035;-85
2021/07/27 01:00:26;;;;;;;90.78;51.95;;;17.80;99.90;;;;;;4968933;28;20047;-85
2021/07/27 01:02:52;;;;;;;97.35;51.83;;;17.80;99.90;;;;;;4968757;28;20031;-84
2021/07/27 01:05:19;;;;;;;95.28;51.92;;;17.80;99.90;;;;;;4968550;28;20105;-84
2021/07/27 01:07:45;;;;;;;94.18;52.15;;;17.80;99.90;;;;;;4965820;28;20130;-84
2021/07/27 01:10:16;;;;;;;91.43;50.80;;;17.80;99.90;;;;;;4968756;28;20117;-84
2021/07/27 01:12:44;;;;;;;96.57;51.95;;;17.80;99.90;;;;;;4967422;28;20031;-84
2021/07/27 01:15:10;;;;;;;102.03;53.10;;;17.80;99.90;;;;;;4969618;28;20027;-83
2021/07/27 01:17:37;;;;;;;94.78;50.97;;;17.80;99.90;;;;;;4951645;28;20042;-84
2021/07/27 01:20:28;;;;;;;102.78;53.65;;;17.70;99.90;;;;;;4975282;28;20402;-84
2021/07/27 01:39:22;;;;;;;93.18;50.30;;;17.70;99.90;;;;;;4981814;28;20122;-84
2021/07/27 01:44:44;;;;;;;88.05;49.85;;;17.70;99.90;;;;;;4973105;28;20260;-83
2021/07/27 01:47:20;;;;;;;96.97;52.00;;;17.70;99.90;;;;;;4970414;28;20410;-84
2021/07/27 01:49:47;;;;;;;96.13;52.67;;;17.70;99.90;;;;;;4959917;28;20120;-86
2021/07/27 01:52:14;;;;;;;94.65;52.35;;;17.70;99.90;;;;;;4970866;28;20035;-84
2021/07/27 01:54:41;;;;;;;97.40;52.20;;;17.70;99.90;;;;;;4952943;28;20027;-85
2021/07/27 01:57:09;;;;;;;87.80;50.35;;;17.70;99.90;;;;;;4964936;28;20058;-85
2021/07/27 01:59:42;;;;;;;89.20;48.10;;;17.70;99.90;;;;;;4965981;28;20482;-85
2021/07/27 02:02:12;;;;;;;89.45;49.55;;;17.70;99.90;;;;;;4938984;28;20085;-85
2021/07/27 02:04:37;;;;;;;90.57;49.35;;;17.80;99.90;;;;;;4959260;28;20030;-85
2021/07/27 02:07:03;;;;;;;92.03;50.30;;;17.80;99.90;;;;;;4971185;28;20035;-85
2021/07/27 02:09:31;;;;;;;90.80;49.60;;;17.80;99.90;;;;;;4953834;28;20375;-85
2021/07/27 02:12:01;;;;;;;92.35;51.20;;;17.70;99.90;;;;;;4970293;28;20533;-84
2021/07/27 02:15:04;;;;;;;85.25;48.95;;;17.70;99.90;;;;;;4969201;28;20051;-86
2021/07/27 02:17:12;;;;;;;89.22;47.83;;;17.80;99.90;;;;;;4970474;28;20355;-85
2021/07/27 02:19:38;;;;;;;92.65;49.17;;;17.80;99.90;;;;;;4971921;28;20200;-84
2021/07/27 02:22:04;;;;;;;86.45;47.95;;;17.80;99.90;;;;;;4986861;28;20085;-85
2021/07/27 02:24:30;;;;;;;90.43;47.72;;;17.80;99.90;;;;;;4956568;28;20039;-85
2021/07/27 02:26:56;;;;;;;94.72;50.33;;;17.80;99.90;;;;;;4954378;28;20045;-85
2021/07/27 02:29:22;;;;;;;90.05;48.88;;;17.80;99.90;;;;;;4953279;28;20307;-85
2021/07/27 02:31:48;;;;;;;83.55;47.42;;;17.80;99.90;;;;;;4970959;28;20039;-84
2021/07/27 02:34:14;;;;;;;89.10;49.88;;;17.70;99.90;;;;;;4983857;28;20031;-84
2021/07/27 02:36:39;;;;;;;92.75;49.92;;;17.70;99.90;;;;;;4986044;28;20039;-84
2021/07/27 02:39:06;;;;;;;88.07;49.90;;;17.80;99.90;;;;;;4969815;28;20045;-85
2021/07/27 02:41:33;;;;;;;99.85;51.38;;;17.80;99.90;;;;;;4954481;28;20043;-86
2021/07/27 02:44:00;;;;;;;96.47;50.30;;;17.80;99.90;;;;;;4972938;28;20481;-85
2021/07/27 02:46:27;;;;;;;98.75;50.80;;;17.80;99.90;;;;;;4952338;28;20077;-87
2021/07/27 02:48:52;;;;;;;106.68;53.53;;;17.80;99.90;;;;;;4967132;28;20036;-86
2021/07/27 02:51:18;;;;;;;104.80;51.90;;;17.80;99.90;;;;;;4984345;28;20133;-87
2021/07/27 02:53:44;;;;;;;105.57;52.30;;;17.80;99.90;;;;;;4968645;28;20038;-86
2021/07/27 02:56:17;;;;;;;101.53;51.25;;;17.80;99.90;;;;;;4960001;28;20546;-86
2021/07/27 02:58:43;;;;;;;101.65;50.30;;;17.80;99.90;;;;;;4942251;28;20073;-84
2021/07/27 03:01:09;;;;;;;99.05;51.78;;;17.70;99.90;;;;;;4952052;28;20058;-84
2021/07/27 03:03:35;;;;;;;105.93;52.53;;;17.70;99.90;;;;;;4984018;28;20077;-84
2021/07/27 03:06:02;;;;;;;99.28;50.15;;;17.80;99.90;;;;;;4973414;28;20041;-82
2021/07/27 03:08:47;;;;;;;98.80;50.85;;;17.70;99.90;;;;;;4970982;28;20039;-83
2021/07/27 03:11:14;;;;;;;107.22;52.80;;;17.80;99.90;;;;;;4955102;28;20073;-83
2021/07/27 03:13:41;;;;;;;104.35;51.58;;;17.70;99.90;;;;;;4978690;28;20026;-83
2021/07/27 03:16:07;;;;;;;93.68;49.15;;;17.80;99.90;;;;;;4968324;28;20438;-83
2021/07/27 03:18:33;;;;;;;97.05;47.88;;;17.80;99.90;;;;;;4968773;28;21654;-82
2021/07/27 03:20:59;;;;;;;88.18;45.33;;;17.70;99.90;;;;;;4951663;28;20098;-84
2021/07/27 03:23:28;;;;;;;74.68;42.05;;;17.70;99.90;;;;;;4961729;28;20038;-84
2021/07/27 03:25:53;;;;;;;71.30;38.42;;;17.70;99.90;;;;;;4996761;28;20034;-82
2021/07/27 03:28:19;;;;;;;66.13;36.40;;;17.70;99.90;;;;;;4974946;28;20069;-83
2021/07/27 03:30:45;;;;;;;62.90;35.35;;;17.70;99.90;;;;;;4954950;28;20109;-83
2021/07/27 03:33:14;;;;;;;62.85;34.42;;;17.60;99.90;;;;;;4958619;28;20245;-81
2021/07/27 03:35:40;;;;;;;53.88;32.53;;;17.60;99.90;;;;;;4966682;28;20034;-83
2021/07/27 03:38:06;;;;;;;56.22;33.67;;;17.60;99.90;;;;;;4953193;28;20501;-83
2021/07/27 03:40:35;;;;;;;59.22;33.67;;;17.50;99.90;;;;;;4983441;28;20605;-83
2021/07/27 03:43:01;;;;;;;53.50;32.22;;;17.50;99.90;;;;;;4967157;28;20685;-82
2021/07/27 03:45:27;;;;;;;50.80;31.10;;;17.50;99.90;;;;;;4973605;28;20035;-83
2021/07/27 03:47:53;;;;;;;47.13;29.52;;;17.50;99.90;;;;;;4969825;28;20104;-83
2021/07/27 03:50:18;;;;;;;47.30;29.27;;;17.40;99.90;;;;;;4970250;28;20031;-83
2021/07/27 03:52:44;;;;;;;45.05;29.65;;;17.40;99.90;;;;;;4950882;28;20154;-83
2021/07/27 03:55:11;;;;;;;50.35;28.10;;;17.40;99.90;;;;;;4966531;28;20061;-83
2021/07/27 03:57:36;;;;;;;47.08;29.58;;;17.40;99.90;;;;;;4955717;28;20118;-83
2021/07/27 04:00:04;;;;;;;48.55;31.33;;;17.40;99.90;;;;;;4983637;28;20043;-83
2021/07/27 04:02:29;;;;;;;46.83;28.63;;;17.30;99.90;;;;;;4966478;28;20043;-83
2021/07/27 04:04:55;;;;;;;46.50;29.13;;;17.30;99.90;;;;;;4977941;28;20034;-83
2021/07/27 04:07:21;;;;;;;48.45;31.15;;;17.30;99.90;;;;;;4979556;28;20457;-82
2021/07/27 04:09:48;;;;;;;53.90;32.72;;;17.30;99.90;;;;;;4985033;28;20054;-82
2021/07/27 04:12:13;;;;;;;49.80;31.45;;;17.30;99.90;;;;;;4952522;28;20031;-82
2021/07/27 04:14:40;;;;;;;50.08;32.10;;;17.30;99.90;;;;;;4984954;28;20126;-82
2021/07/27 04:17:09;;;;;;;57.22;33.60;;;17.20;99.90;;;;;;4968006;28;20034;-83
2021/07/27 04:19:35;;;;;;;55.63;32.72;;;17.20;99.90;;;;;;4936470;28;20418;-83
2021/07/27 04:22:01;;;;;;;54.13;33.00;;;17.20;99.90;;;;;;4936000;28;20039;-83
2021/07/27 04:24:28;;;;;;;52.65;32.72;;;17.20;99.90;;;;;;4957748;28;20413;-84
2021/07/27 04:26:54;;;;;;;62.45;34.30;;;17.10;99.90;;;;;;4969030;28;20069;-83
2021/07/27 04:29:20;;;;;;;59.92;33.30;;;17.20;99.90;;;;;;4967759;28;20065;-83
2021/07/27 04:31:49;;;;;;;55.13;32.40;;;17.10;99.90;;;;;;4967209;28;20038;-83
2021/07/27 04:34:15;;;;;;;58.83;33.70;;;17.10;99.90;;;;;;4969291;28;20097;-81
2021/07/27 04:36:40;;;;;;;60.17;33.42;;;17.10;99.90;;;;;;4953265;28;20414;-82
2021/07/27 04:39:06;;;;;;;53.92;31.92;;;17.10;99.90;;;;;;4946957;28;20054;-83
2021/07/27 04:41:36;;;;;;;53.60;31.13;;;17.10;99.90;;;;;;4940412;28;20437;-82
2021/07/27 04:44:03;;;;;;;55.83;32.05;;;17.10;99.90;;;;;;4953985;28;20438;-83
2021/07/27 04:46:29;;;;;;;53.22;32.42;;;17.20;99.90;;;;;;4961148;28;20494;-82
2021/07/27 04:48:55;;;;;;;52.97;30.80;;;17.20;99.90;;;;;;4938423;28;20049;-83
2021/07/27 04:51:21;;;;;;;55.92;32.75;;;17.20;99.90;;;;;;4942838;28;20039;-83
2021/07/27 04:53:49;;;;;;;58.28;32.10;;;17.30;99.90;;;;;;4965037;28;20042;-84
2021/07/27 04:56:15;;;;;;;53.47;32.78;;;17.30;99.90;;;;;;4944469;28;20039;-84
2021/07/27 04:58:41;;;;;;;54.22;31.63;;;17.30;99.90;;;;;;4925002;28;20097;-84
2021/07/27 05:01:06;;;;;;;52.00;32.35;;;17.40;99.90;;;;;;4960784;28;20043;-85
2021/07/27 05:03:32;;;;;;;48.08;29.70;;;17.40;99.90;;;;;;4963570;28;20074;-84
2021/07/27 05:05:58;;;;;;;54.85;31.92;;;17.40;99.90;;;;;;4975089;28;20026;-86
2021/07/27 05:08:24;;;;;;;55.30;31.92;;;17.50;99.90;;;;;;4958997;28;20035;-85
2021/07/27 05:10:50;;;;;;;52.42;31.98;;;17.50;99.90;;;;;;4958012;28;20536;-86
2021/07/27 05:13:16;;;;;;;55.83;33.53;;;17.50;99.90;;;;;;4947937;28;20413;-84
2021/07/27 05:15:42;;;;;;;49.60;32.50;;;17.50;99.90;;;;;;4930828;28;20068;-84
2021/07/27 05:18:08;;;;;;;58.47;35.42;;;17.60;99.90;;;;;;4959599;28;20041;-86
2021/07/27 05:20:34;;;;;;;56.30;34.42;;;17.60;99.90;;;;;;4937072;28;20559;-84
2021/07/27 05:23:00;;;;;;;55.65;34.47;;;17.60;99.90;;;;;;4941291;28;20121;-82
2021/07/27 05:25:25;;;;;;;63.45;36.60;;;17.60;99.90;;;;;;4934689;28;20034;-83
2021/07/27 05:27:51;;;;;;;63.25;37.22;;;17.60;99.90;;;;;;4960851;28;20034;-83
2021/07/27 05:30:17;;;;;;;65.50;37.65;;;17.60;99.90;;;;;;4965373;28;20038;-82
2021/07/27 05:32:44;;;;;;;58.63;36.85;;;17.70;99.90;;;;;;4945235;28;20042;-84
2021/07/27 05:35:11;;;;;;;60.33;36.58;;;17.70;99.90;;;;;;4980916;28;20102;-83
2021/07/27 05:37:37;;;;;;;58.55;34.75;;;17.80;99.90;;;;;;4971598;28;20049;-83
2021/07/27 05:40:04;;;;;;;60.55;34.95;;;17.80;99.90;;;;;;4963083;28;20070;-84
2021/07/27 05:42:30;;;;;;;59.97;34.83;;;17.80;99.90;;;;;;4960806;28;20089;-83
2021/07/27 05:44:55;;;;;;;60.53;36.08;;;17.80;99.90;;;;;;4959013;28;20047;-82
2021/07/27 05:47:21;;;;;;;65.10;36.22;;;17.80;99.90;;;;;;4975769;28;20050;-83
2021/07/27 05:49:47;;;;;;;67.63;36.95;;;17.80;99.90;;;;;;4960492;28;20067;-83
2021/07/27 05:52:13;;;;;;;70.10;37.03;;;17.80;99.90;;;;;;4960339;28;20565;-83
2021/07/27 05:54:40;;;;;;;60.85;36.60;;;17.80;99.90;;;;;;4938746;28;20605;-83
2021/07/27 05:57:13;;;;;;;67.43;37.78;;;17.70;99.90;;;;;;4962584;28;20043;-83
2021/07/27 05:59:40;;;;;;;61.72;37.45;;;17.80;99.90;;;;;;4959299;28;20039;-84
2021/07/27 06:02:07;;;;;;;73.82;37.63;;;17.80;99.90;;;;;;4961674;28;20118;-83
2021/07/27 06:04:33;;;;;;;72.03;38.63;;;17.80;99.90;;;;;;4971331;28;20521;-82
2021/07/27 06:06:59;;;;;;;72.07;40.53;;;17.80;99.90;;;;;;4947975;28;20114;-83
2021/07/27 06:09:25;;;;;;;67.18;38.80;;;17.80;99.90;;;;;;4948725;28;20188;-83
2021/07/27 06:11:50;;;;;;;71.03;39.92;;;17.80;99.90;;;;;;4945743;28;20061;-83
2021/07/27 06:14:16;;;;;;;71.85;40.38;;;17.80;99.90;;;;;;4964517;28;20039;-83
2021/07/27 06:16:43;;;;;;;78.15;42.72;;;17.80;99.90;;;;;;4951387;28;20070;-83
2021/07/27 06:19:11;;;;;;;81.68;42.95;;;17.80;99.90;;;;;;4962976;28;20122;-82
2021/07/27 06:21:40;;;;;;;83.32;43.67;;;17.80;99.90;;;;;;4984109;28;20043;-82
2021/07/27 06:24:10;;;;;;;78.65;42.53;;;17.90;99.90;;;;;;4968963;28;20093;-83
2021/07/27 06:26:39;;;;;;;69.53;42.55;;;17.90;99.90;;;;;;4948905;28;20042;-84
2021/07/27 06:29:08;;;;;;;83.55;41.85;;;17.90;99.90;;;;;;4950431;28;20043;-83
2021/07/27 06:31:35;;;;;;;77.15;43.60;;;18.00;99.90;;;;;;4936644;28;20660;-82
2021/07/27 06:34:08;;;;;;;73.30;40.72;;;17.90;99.90;;;;;;4964469;28;20022;-84
2021/07/27 06:36:34;;;;;;;74.43;42.45;;;18.00;99.90;;;;;;4965881;28;20038;-83
2021/07/27 06:39:00;;;;;;;72.05;42.50;;;18.00;99.90;;;;;;4965712;28;20057;-83
2021/07/27 06:41:25;;;;;;;72.30;42.47;;;18.00;99.90;;;;;;4947637;28;20078;-84
2021/07/27 06:43:51;;;;;;;66.70;41.17;;;18.00;99.90;;;;;;4979351;28;20090;-82
2021/07/27 06:46:17;;;;;;;63.65;40.45;;;18.00;99.90;;;;;;4951284;28;20107;-82
2021/07/27 06:48:43;;;;;;;70.63;40.72;;;18.10;99.90;;;;;;4967793;28;20046;-82
2021/07/27 06:51:10;;;;;;;64.30;41.38;;;18.20;99.90;;;;;;4950460;28;20549;-84
2021/07/27 06:53:37;;;;;;;76.20;46.75;;;18.40;99.90;;;;;;4971526;28;20102;-83
2021/07/27 06:56:03;;;;;;;65.82;41.78;;;18.40;99.90;;;;;;4975422;28;20065;-82
2021/07/27 06:58:31;;;;;;;71.47;43.70;;;18.50;99.90;;;;;;4966369;28;20122;-83
2021/07/27 07:01:09;;;;;;;75.55;44.78;;;18.60;99.90;;;;;;4977905;28;20110;-83
2021/07/27 07:03:37;;;;;;;75.65;46.42;;;18.60;99.90;;;;;;4964812;28;20445;-83
2021/07/27 07:06:03;;;;;;;75.47;45.90;;;18.60;99.90;;;;;;4980497;28;20121;-84
2021/07/27 07:08:29;;;;;;;78.38;46.50;;;18.70;99.90;;;;;;4946935;28;20042;-83
2021/07/27 07:10:59;;;;;;;80.82;47.50;;;18.60;99.90;;;;;;4977229;28;20703;-83
2021/07/27 07:13:26;;;;;;;78.03;45.38;;;18.60;99.90;;;;;;5021568;23;20052;-85
2021/07/27 07:15:53;;;;;;;83.38;49.25;;;18.70;99.90;;;;;;4971044;28;20057;-83
2021/07/27 07:18:23;;;;;;;83.13;48.90;;;18.70;99.90;;;;;;5006569;28;20041;-82
2021/07/27 07:20:53;;;;;;;78.40;46.67;;;18.80;99.90;;;;;;4989577;28;20065;-82
2021/07/27 07:23:22;;;;;;;79.63;47.20;;;18.90;99.90;;;;;;4988690;28;20093;-84
2021/07/27 07:25:55;;;;;;;76.97;47.78;;;19.00;99.90;;;;;;4989082;28;20030;-83
2021/07/27 07:28:21;;;;;;;82.05;47.88;;;19.00;99.80;;;;;;4992170;28;20513;-83
2021/07/27 07:30:48;;;;;;;92.53;50.80;;;19.00;99.70;;;;;;4985704;28;20092;-84
2021/07/27 07:33:14;;;;;;;82.85;48.53;;;19.00;99.80;;;;;;4984335;28;20185;-83
2021/07/27 07:35:40;;;;;;;81.97;49.08;;;18.90;99.80;;;;;;5004195;28;20034;-82
2021/07/27 07:38:06;;;;;;;79.22;48.25;;;19.00;99.50;;;;;;4971369;28;20042;-84
2021/07/27 07:40:32;;;;;;;83.40;48.15;;;19.00;99.50;;;;;;4969280;28;20073;-83
2021/07/27 07:42:59;;;;;;;83.05;48.60;;;19.10;99.60;;;;;;4989402;28;20400;-83
2021/07/27 07:45:26;;;;;;;79.85;46.33;;;19.30;99.70;;;;;;5004317;28;20044;-81
2021/07/27 07:47:53;;;;;;;76.25;44.08;;;19.30;99.20;;;;;;4989409;28;20276;-83
2021/07/27 07:50:19;;;;;;;78.75;46.83;;;19.30;99.00;;;;;;4988788;28;21407;-83
2021/07/27 07:52:45;;;;;;;83.80;48.22;;;19.30;98.60;;;;;;5002581;28;20039;-83
2021/07/27 07:55:11;;;;;;;82.22;47.28;;;19.20;98.50;;;;;;4992753;28;20064;-83
2021/07/27 07:57:38;;;;;;;79.65;47.92;;;19.20;98.50;;;;;;4996656;28;20054;-82
2021/07/27 08:00:13;;;;;;;78.30;45.80;;;19.20;98.80;;;;;;4972868;28;20038;-82
2021/07/27 08:02:50;;;;;;;72.63;43.30;;;19.20;98.80;;;;;;4987033;28;20042;-83
2021/07/27 08:05:19;;;;;;;69.35;43.25;;;19.20;98.20;;;;;;5010372;28;20042;-82
2021/07/27 08:07:48;;;;;;;74.47;43.33;;;19.30;98.30;;;;;;5008026;28;20038;-83
2021/07/27 08:10:23;;;;;;;75.80;45.17;;;19.30;98.20;;;;;;4997592;28;20029;-84
2021/07/27 08:12:50;;;;;;;76.20;46.50;;;19.40;98.30;;;;;;4980121;28;20440;-83
2021/07/27 08:15:23;;;;;;;73.57;44.80;;;19.40;98.40;;;;;;5013543;28;20036;-83
2021/07/27 08:17:49;;;;;;;73.50;44.30;;;19.40;98.20;;;;;;5005141;28;20145;-83
2021/07/27 08:20:16;;;;;;;84.38;49.50;;;19.40;98.40;;;;;;5007880;28;20764;-83
2021/07/27 08:22:42;;;;;;;80.05;48.97;;;19.50;98.60;;;;;;5008371;28;20091;-83
2021/07/27 08:25:16;;;;;;;76.03;48.17;;;19.50;98.60;;;;;;4976375;28;20502;-82
2021/07/27 08:27:43;;;;;;;81.68;49.72;;;19.50;98.60;;;;;;5006858;28;20084;-83
2021/07/27 08:30:10;;;;;;;80.80;48.55;;;19.50;98.50;;;;;;5000811;28;20037;-82
2021/07/27 08:32:36;;;;;;;80.55;47.28;;;19.60;98.30;;;;;;4999821;28;20038;-82
2021/07/27 08:35:03;;;;;;;73.68;46.70;;;19.60;98.10;;;;;;4965811;28;20038;-83
2021/07/27 08:37:28;;;;;;;64.97;42.42;;;19.70;98.10;;;;;;4953164;28;20045;-81
2021/07/27 08:39:59;;;;;;;66.53;41.50;;;19.80;97.50;;;;;;4971441;28;20038;-82
2021/07/27 08:42:29;;;;;;;65.43;42.95;;;19.90;97.00;;;;;;4987557;28;20037;-82
2021/07/27 08:44:57;;;;;;;64.90;42.40;;;20.00;96.80;;;;;;5017101;28;20030;-82
2021/07/27 08:47:24;;;;;;;69.65;43.80;;;20.00;96.80;;;;;;4985094;28;20049;-81
2021/07/27 08:49:51;;;;;;;69.88;43.78;;;20.00;96.80;;;;;;4951231;28;20137;-81
2021/07/27 08:52:17;;;;;;;67.65;43.78;;;20.00;96.70;;;;;;4966624;28;20112;-81
2021/07/27 08:54:46;;;;;;;69.53;43.80;;;20.00;96.60;;;;;;4982302;28;20120;-82
2021/07/27 08:57:14;;;;;;;64.13;41.88;;;20.10;96.80;;;;;;5006112;28;20531;-82
2021/07/27 08:59:43;;;;;;;57.05;38.00;;;20.20;96.40;;;;;;4982822;28;20057;-82
2021/07/27 09:02:09;;;;;;;58.75;37.10;;;20.40;95.80;;;;;;4978682;28;20096;-83
2021/07/27 09:04:35;;;;;;;56.75;37.75;;;20.40;95.30;;;;;;4982860;28;20034;-82
2021/07/27 09:07:05;;;;;;;53.20;36.92;;;20.50;95.10;;;;;;4986886;28;20038;-82
2021/07/27 09:09:33;;;;;;;54.13;35.38;;;20.60;94.70;;;;;;4949695;28;20045;-81
2021/07/27 09:12:00;;;;;;;50.20;36.20;;;20.60;94.20;;;;;;5001719;28;20038;-82
2021/07/27 09:14:26;;;;;;;50.83;35.30;;;20.60;93.80;;;;;;4999117;28;20033;-82
2021/07/27 09:16:58;;;;;;;48.60;34.38;;;20.70;94.10;;;;;;5001131;28;20042;-82
2021/07/27 09:19:25;;;;;;;49.08;34.90;;;20.70;93.80;;;;;;4995193;28;20049;-83
2021/07/27 09:22:04;;;;;;;49.47;35.33;;;20.70;93.50;;;;;;5000240;28;20042;-81
2021/07/27 09:24:30;;;;;;;46.17;33.47;;;20.60;93.30;;;;;;4984550;28;20773;-82
2021/07/27 09:27:02;;;;;;;48.03;32.88;;;20.50;93.40;;;;;;4997330;28;20034;-83
2021/07/27 09:29:32;;;;;;;49.42;32.97;;;20.50;93.30;;;;;;4978855;28;20430;-84
2021/07/27 09:32:01;;;;;;;44.45;32.95;;;20.50;93.70;;;;;;4979182;28;20037;-82
2021/07/27 09:34:31;;;;;;;44.88;33.15;;;20.50;93.70;;;;;;5000350;28;20060;-82
2021/07/27 09:37:05;;;;;;;46.70;33.67;;;20.50;93.60;;;;;;4981907;28;20038;-82
2021/07/27 09:39:32;;;;;;;44.65;33.03;;;20.50;93.60;;;;;;4981256;28;20134;-82
2021/07/27 09:42:09;;;;;;;47.42;32.05;;;20.40;93.70;;;;;;4962720;28;20042;-83
2021/07/27 09:44:37;;;;;;;43.97;31.67;;;20.40;93.90;;;;;;4981933;28;20044;-82
2021/07/27 09:47:04;;;;;;;41.97;31.52;;;20.40;94.00;;;;;;4971925;28;20045;-82
2021/07/27 09:49:30;;;;;;;37.22;26.85;;;20.40;94.20;;;;;;4982396;28;20128;-82
2021/07/27 09:51:57;;;;;;;36.85;28.55;;;20.40;94.10;;;;;;5001280;28;20049;-82
2021/07/27 09:54:25;;;;;;;37.80;28.25;;;20.50;94.10;;;;;;4980958;28;20049;-82
2021/07/27 09:56:52;;;;;;;29.77;23.55;;;20.60;93.90;;;;;;4984836;28;20044;-82
2021/07/27 09:59:23;;;;;;;31.85;23.95;;;20.60;93.30;;;;;;5001861;28;20448;-82
2021/07/27 10:01:56;;;;;;;30.63;23.98;;;20.60;93.20;;;;;;4999529;28;20034;-82
2021/07/27 10:04:24;;;;;;;31.98;23.67;;;20.70;93.30;;;;;;4966550;28;20133;-83
2021/07/27 10:06:50;;;;;;;27.08;21.55;;;20.70;92.90;;;;;;5000510;28;20513;-83
2021/07/27 10:09:33;;;;;;;30.92;21.88;;;20.60;92.80;;;;;;4980122;28;20082;-82
2021/07/27 10:12:07;;;;;;;25.88;21.15;;;20.80;93.10;;;;;;4981761;28;20065;-82
2021/07/27 10:14:47;;;;;;;28.52;21.40;;;20.90;93.00;;;;;;4986308;28;20045;-84
2021/07/27 10:17:13;;;;;;;23.85;20.33;;;21.00;93.00;;;;;;4999470;28;20722;-84
2021/07/27 10:19:49;;;;;;;25.95;20.90;;;21.00;92.80;;;;;;5005319;28;20041;-83
2021/07/27 10:22:31;;;;;;;33.30;22.48;;;21.10;92.50;;;;;;4986548;28;20042;-84
2021/07/27 10:24:57;;;;;;;27.17;21.63;;;21.10;92.30;;;;;;4969762;28;20033;-82
2021/07/27 10:27:29;;;;;;;29.67;21.63;;;21.00;92.40;;;;;;4981303;28;20045;-82
2021/07/27 10:30:10;;;;;;;31.63;20.88;;;21.00;92.10;;;;;;4985404;28;20056;-83
2021/07/27 10:32:40;;;;;;;27.70;20.65;;;21.00;92.50;;;;;;5003102;28;20030;-84
2021/07/27 10:35:31;;;;;;;24.48;20.00;;;21.00;92.40;;;;;;5006328;28;20541;-84
2021/07/27 10:38:16;;;;;;;30.38;21.45;;;21.00;92.50;;;;;;5002034;28;20060;-85
2021/07/27 10:41:03;;;;;;;27.48;20.73;;;21.10;92.40;;;;;;4963833;28;20064;-83
2021/07/27 10:43:30;;;;;;;24.70;20.30;;;21.20;92.30;;;;;;4960983;28;20105;-83
2021/07/27 10:46:01;;;;;;;24.98;19.40;;;21.30;92.20;;;;;;4964313;28;20046;-83
2021/07/27 10:48:34;;;;;;;25.00;20.88;;;21.30;91.90;;;;;;4963773;28;20145;-84
2021/07/27 10:51:04;;;;;;;24.13;20.08;;;21.40;91.80;;;;;;4978891;28;20042;-85
2021/07/27 10:53:36;;;;;;;26.70;20.38;;;21.50;91.80;;;;;;4976947;28;20144;-84
2021/07/27 10:56:11;;;;;;;27.95;20.75;;;21.50;91.90;;;;;;4976914;28;20150;-83
2021/07/27 10:58:37;;;;;;;24.35;19.30;;;21.60;92.10;;;;;;4980113;28;20555;-83
2021/07/27 11:01:07;;;;;;;24.63;20.98;;;21.60;92.00;;;;;;4954106;28;20051;-83
2021/07/27 11:03:33;;;;;;;25.38;21.05;;;21.70;92.00;;;;;;4967211;28;20042;-83
2021/07/27 11:06:03;;;;;;;30.48;21.58;;;21.70;91.90;;;;;;4967216;28;20035;-83
2021/07/27 11:08:29;;;;;;;29.40;21.15;;;21.70;91.70;;;;;;4945858;28;20050;-85
2021/07/27 11:11:04;;;;;;;26.13;21.20;;;21.70;91.50;;;;;;4961057;28;20113;-84
2021/07/27 11:13:32;;;;;;;27.63;20.25;;;21.80;91.80;;;;;;4962221;28;20050;-84
2021/07/27 11:16:00;;;;;;;24.02;20.42;;;21.90;91.10;;;;;;4967685;28;20121;-82
2021/07/27 11:18:29;;;;;;;24.50;19.60;;;22.00;90.70;;;;;;4985222;28;20065;-85
2021/07/27 11:20:58;;;;;;;28.50;20.88;;;22.00;90.90;;;;;;4972376;28;20050;-83
2021/07/27 11:23:35;;;;;;;27.92;21.45;;;22.10;91.00;;;;;;4986455;28;20101;-85
2021/07/27 11:26:02;;;;;;;25.65;20.98;;;22.10;91.50;;;;;;4980227;28;20041;-85
2021/07/27 11:28:54;;;;;;;29.92;24.20;;;22.20;91.70;;;;;;5000454;28;20147;-85
2021/07/27 11:31:24;;;;;;;27.77;23.70;;;22.20;91.80;;;;;;4949841;28;20504;-84
2021/07/27 11:33:51;;;;;;;32.25;23.05;;;22.10;92.00;;;;;;4986029;28;20228;-82
2021/07/27 11:36:27;;;;;;;29.17;23.67;;;22.10;91.60;;;;;;5005774;28;20037;-85
2021/07/27 11:39:07;;;;;;;28.42;22.83;;;22.10;91.40;;;;;;5003598;28;20038;-84
2021/07/27 11:41:44;;;;;;;32.20;22.67;;;22.20;91.30;;;;;;4998098;28;20037;-84
2021/07/27 11:44:12;;;;;;;30.25;21.80;;;22.20;91.40;;;;;;4984182;28;20034;-85
2021/07/27 11:46:44;;;;;;;36.67;25.00;;;22.20;91.20;;;;;;4966700;28;20060;-84
2021/07/27 11:49:11;;;;;;;28.17;22.52;;;22.20;91.10;;;;;;4981571;28;21648;-84
2021/07/27 11:51:37;;;;;;;25.60;21.08;;;22.20;91.30;;;;;;4998755;28;20046;-86
2021/07/27 11:54:08;;;;;;;30.38;23.38;;;22.20;91.20;;;;;;4979438;28;20084;-85
2021/07/27 11:56:49;;;;;;;26.08;22.02;;;22.20;91.00;;;;;;4965792;28;20061;-85
2021/07/27 11:59:28;;;;;;;23.90;19.92;;;22.10;91.60;;;;;;4952370;28;20042;-83
2021/07/27 12:01:55;;;;;;;24.05;18.63;;;22.10;91.60;;;;;;4961933;28;20050;-84
2021/07/27 12:04:21;;;;;;;26.45;19.15;;;22.20;91.50;;;;;;4965827;28;20509;-82
2021/07/27 12:06:51;;;;;;;27.65;17.92;;;22.40;90.40;;;;;;4997340;28;20040;-84
2021/07/27 12:09:21;;;;;;;24.00;18.23;;;22.50;89.90;;;;;;4999819;28;20223;-84
2021/07/27 12:11:47;;;;;;;23.90;18.23;;;22.60;88.10;;;;;;4984550;28;20042;-83
2021/07/27 12:14:13;;;;;;;23.38;17.08;;;22.70;87.60;;;;;;4988924;28;20038;-83
2021/07/27 12:16:43;;;;;;;21.85;17.25;;;22.80;88.10;;;;;;4988265;28;20488;-83
2021/07/27 12:19:12;;;;;;;23.38;17.27;;;22.80;87.40;;;;;;4987179;28;20037;-83
2021/07/27 12:21:38;;;;;;;23.13;17.58;;;22.90;86.40;;;;;;4971478;28;20044;-84
2021/07/27 12:24:08;;;;;;;21.75;17.95;;;22.90;85.90;;;;;;4985956;28;20043;-84
2021/07/27 12:26:41;;;;;;;24.55;18.58;;;22.90;85.10;;;;;;4986382;28;20296;-83
2021/07/27 12:29:12;;;;;;;22.63;17.40;;;22.90;85.60;;;;;;4967277;28;20062;-83
2021/07/27 12:31:50;;;;;;;22.13;18.15;;;22.90;85.10;;;;;;4986239;28;20045;-83
2021/07/27 12:34:29;;;;;;;22.25;18.45;;;22.80;84.60;;;;;;5001326;28;20049;-84
2021/07/27 12:36:55;;;;;;;21.38;16.92;;;22.90;84.80;;;;;;5000172;28;20034;-84
2021/07/27 12:39:23;;;;;;;22.67;17.48;;;22.90;86.30;;;;;;5005201;28;20034;-82
2021/07/27 12:41:53;;;;;;;19.48;15.45;;;23.00;84.70;;;;;;4987394;28;20049;-83
2021/07/27 12:44:29;;;;;;;26.13;15.95;;;23.00;84.30;;;;;;4986764;28;20041;-84
2021/07/27 12:46:58;;;;;;;23.80;16.05;;;23.10;84.90;;;;;;4998177;28;20045;-83
2021/07/27 12:49:38;;;;;;;21.75;15.20;;;23.00;84.40;;;;;;4983626;28;20309;-83
2021/07/27 12:52:10;;;;;;;22.13;15.85;;;23.00;85.30;;;;;;4966202;28;20125;-83